sensor_id;sensor_type;location;lat;lon;timestamp;P1;durP1;ratioP1;P2;durP2;ratioP2
58637;SDS011;54976;51.510;7.522;2023-04-03T00:02:40;20.67;;;10.88;;
58637;SDS011;54976;51.510;7.522;2023-04-03T00:05:40;20.60;;;11.00;;
58637;SDS011;54976;51.510;7.522;2023-04-03T00:08:41;19.02;;;11.25;;
58637;SDS011;54976;51.510;7.522;2023-04-03T00:11:42;16.40;;;11.07;;
58637;SDS011;54976;51.510;7.522;2023-04-03T00:14:42;17.08;;;11.63;;
58637;SDS011;54976;51.510;7.522;2023-04-03T00:17:43;17.08;;;11.30;;
58637;SDS011;54976;51.510;7.522;2023-04-03T00:20:43;19.55;;;11.90;;
58637;SDS011;54976;51.510;7.522;2023-04-03T00:23:44;19.80;;;10.60;;
58637;SDS011;54976;51.510;7.522;2023-04-03T00:26:44;18.48;;;11.30;;
58637;SDS011;54976;51.510;7.522;2023-04-03T00:29:45;17.75;;;9.98;;
58637;SDS011;54976;51.510;7.522;2023-04-03T00:32:47;13.65;;;7.53;;
58637;SDS011;54976;51.510;7.522;2023-04-03T00:35:49;15.88;;;6.75;;
58637;SDS011;54976;51.510;7.522;2023-04-03T00:38:50;9.32;;;6.07;;
58637;SDS011;54976;51.510;7.522;2023-04-03T00:41:51;9.23;;;5.10;;
58637;SDS011;54976;51.510;7.522;2023-04-03T00:47:55;17.95;;;6.68;;
58637;SDS011;54976;51.510;7.522;2023-04-03T00:50:59;11.35;;;5.50;;
58637;SDS011;54976;51.510;7.522;2023-04-03T00:54:01;7.30;;;4.07;;
58637;SDS011;54976;51.510;7.522;2023-04-03T00:57:04;9.23;;;6.03;;
58637;SDS011;54976;51.510;7.522;2023-04-03T01:00:07;6.82;;;3.42;;
58637;SDS011;54976;51.510;7.522;2023-04-03T01:03:10;5.20;;;3.92;;
58637;SDS011;54976;51.510;7.522;2023-04-03T01:06:11;10.23;;;4.30;;
58637;SDS011;54976;51.510;7.522;2023-04-03T01:09:13;10.85;;;4.28;;
58637;SDS011;54976;51.510;7.522;2023-04-03T01:15:22;6.25;;;3.47;;
58637;SDS011;54976;51.510;7.522;2023-04-03T01:18:25;7.80;;;2.97;;
58637;SDS011;54976;51.510;7.522;2023-04-03T01:25:17;10.77;;;3.58;;
58637;SDS011;54976;51.510;7.522;2023-04-03T01:31:27;4.60;;;2.42;;
58637;SDS011;54976;51.510;7.522;2023-04-03T01:34:33;6.30;;;2.33;;
58637;SDS011;54976;51.510;7.522;2023-04-03T01:37:34;6.03;;;2.63;;
58637;SDS011;54976;51.510;7.522;2023-04-03T01:40:34;8.93;;;3.40;;
58637;SDS011;54976;51.510;7.522;2023-04-03T01:43:35;6.45;;;3.28;;
58637;SDS011;54976;51.510;7.522;2023-04-03T01:46:36;7.70;;;2.13;;
58637;SDS011;54976;51.510;7.522;2023-04-03T01:49:37;8.23;;;2.38;;
58637;SDS011;54976;51.510;7.522;2023-04-03T01:52:38;7.22;;;2.92;;
58637;SDS011;54976;51.510;7.522;2023-04-03T01:55:38;6.45;;;2.90;;
58637;SDS011;54976;51.510;7.522;2023-04-03T01:58:39;4.88;;;3.15;;
58637;SDS011;54976;51.510;7.522;2023-04-03T02:01:40;6.93;;;3.35;;
58637;SDS011;54976;51.510;7.522;2023-04-03T02:04:40;7.70;;;2.85;;
58637;SDS011;54976;51.510;7.522;2023-04-03T02:07:41;3.15;;;2.50;;
58637;SDS011;54976;51.510;7.522;2023-04-03T02:10:42;5.03;;;2.38;;
58637;SDS011;54976;51.510;7.522;2023-04-03T02:13:42;7.65;;;3.42;;
58637;SDS011;54976;51.510;7.522;2023-04-03T02:16:43;5.93;;;2.42;;
58637;SDS011;54976;51.510;7.522;2023-04-03T02:19:43;9.93;;;2.78;;
58637;SDS011;54976;51.510;7.522;2023-04-03T02:22:45;7.32;;;3.03;;
58637;SDS011;54976;51.510;7.522;2023-04-03T02:25:45;5.53;;;2.47;;
58637;SDS011;54976;51.510;7.522;2023-04-03T02:28:46;4.22;;;2.40;;
58637;SDS011;54976;51.510;7.522;2023-04-03T02:31:47;5.30;;;2.85;;
58637;SDS011;54976;51.510;7.522;2023-04-03T02:34:47;8.82;;;2.70;;
58637;SDS011;54976;51.510;7.522;2023-04-03T02:37:48;9.10;;;3.97;;
58637;SDS011;54976;51.510;7.522;2023-04-03T02:40:48;13.20;;;3.85;;
58637;SDS011;54976;51.510;7.522;2023-04-03T02:43:49;7.40;;;3.00;;
58637;SDS011;54976;51.510;7.522;2023-04-03T02:46:50;16.73;;;5.45;;
58637;SDS011;54976;51.510;7.522;2023-04-03T02:49:50;13.70;;;7.57;;
58637;SDS011;54976;51.510;7.522;2023-04-03T02:52:52;5.10;;;2.22;;
58637;SDS011;54976;51.510;7.522;2023-04-03T02:55:53;2.58;;;1.80;;
58637;SDS011;54976;51.510;7.522;2023-04-03T02:58:53;5.22;;;2.10;;
58637;SDS011;54976;51.510;7.522;2023-04-03T03:01:54;6.00;;;2.42;;
58637;SDS011;54976;51.510;7.522;2023-04-03T03:04:55;5.90;;;2.72;;
58637;SDS011;54976;51.510;7.522;2023-04-03T03:07:56;7.35;;;2.70;;
58637;SDS011;54976;51.510;7.522;2023-04-03T03:10:56;9.73;;;3.28;;
58637;SDS011;54976;51.510;7.522;2023-04-03T03:13:57;9.45;;;2.47;;
58637;SDS011;54976;51.510;7.522;2023-04-03T03:16:58;10.50;;;2.78;;
58637;SDS011;54976;51.510;7.522;2023-04-03T03:19:58;5.45;;;2.83;;
58637;SDS011;54976;51.510;7.522;2023-04-03T03:22:59;7.15;;;2.67;;
58637;SDS011;54976;51.510;7.522;2023-04-03T03:26:00;6.32;;;1.85;;
58637;SDS011;54976;51.510;7.522;2023-04-03T03:29:04;10.18;;;2.20;;
58637;SDS011;54976;51.510;7.522;2023-04-03T03:32:04;6.45;;;2.08;;
58637;SDS011;54976;51.510;7.522;2023-04-03T03:35:05;4.75;;;1.80;;
58637;SDS011;54976;51.510;7.522;2023-04-03T03:38:06;3.85;;;1.55;;
58637;SDS011;54976;51.510;7.522;2023-04-03T03:41:06;6.50;;;1.65;;
58637;SDS011;54976;51.510;7.522;2023-04-03T03:44:07;6.68;;;1.85;;
58637;SDS011;54976;51.510;7.522;2023-04-03T03:47:08;9.30;;;1.80;;
58637;SDS011;54976;51.510;7.522;2023-04-03T03:50:10;9.90;;;2.00;;
58637;SDS011;54976;51.510;7.522;2023-04-03T03:53:11;8.68;;;2.00;;
58637;SDS011;54976;51.510;7.522;2023-04-03T03:56:11;8.70;;;2.00;;
58637;SDS011;54976;51.510;7.522;2023-04-03T03:59:12;3.50;;;1.50;;
58637;SDS011;54976;51.510;7.522;2023-04-03T04:02:13;5.25;;;1.88;;
58637;SDS011;54976;51.510;7.522;2023-04-03T04:05:13;5.18;;;1.60;;
58637;SDS011;54976;51.510;7.522;2023-04-03T04:08:14;10.98;;;2.70;;
58637;SDS011;54976;51.510;7.522;2023-04-03T04:11:14;8.88;;;1.92;;
58637;SDS011;54976;51.510;7.522;2023-04-03T04:14:15;9.05;;;2.45;;
58637;SDS011;54976;51.510;7.522;2023-04-03T04:17:16;7.63;;;1.85;;
58637;SDS011;54976;51.510;7.522;2023-04-03T04:20:16;8.93;;;2.20;;
58637;SDS011;54976;51.510;7.522;2023-04-03T04:23:17;7.45;;;2.30;;
58637;SDS011;54976;51.510;7.522;2023-04-03T04:26:18;3.30;;;1.80;;
58637;SDS011;54976;51.510;7.522;2023-04-03T04:29:19;9.85;;;3.70;;
58637;SDS011;54976;51.510;7.522;2023-04-03T04:32:19;9.13;;;2.25;;
58637;SDS011;54976;51.510;7.522;2023-04-03T04:35:20;7.47;;;3.00;;
58637;SDS011;54976;51.510;7.522;2023-04-03T04:38:20;5.38;;;2.00;;
58637;SDS011;54976;51.510;7.522;2023-04-03T04:41:21;8.40;;;1.92;;
58637;SDS011;54976;51.510;7.522;2023-04-03T04:44:22;6.80;;;1.55;;
58637;SDS011;54976;51.510;7.522;2023-04-03T04:47:23;6.25;;;1.85;;
58637;SDS011;54976;51.510;7.522;2023-04-03T04:50:24;5.47;;;1.90;;
58637;SDS011;54976;51.510;7.522;2023-04-03T04:53:24;7.40;;;1.92;;
58637;SDS011;54976;51.510;7.522;2023-04-03T04:56:25;5.05;;;1.75;;
58637;SDS011;54976;51.510;7.522;2023-04-03T04:59:26;5.90;;;1.85;;
58637;SDS011;54976;51.510;7.522;2023-04-03T05:02:26;7.95;;;2.42;;
58637;SDS011;54976;51.510;7.522;2023-04-03T05:05:27;12.60;;;5.25;;
58637;SDS011;54976;51.510;7.522;2023-04-03T05:08:28;6.60;;;2.40;;
58637;SDS011;54976;51.510;7.522;2023-04-03T05:11:29;6.10;;;2.30;;
58637;SDS011;54976;51.510;7.522;2023-04-03T05:14:30;8.73;;;2.30;;
58637;SDS011;54976;51.510;7.522;2023-04-03T05:17:30;7.57;;;2.03;;
58637;SDS011;54976;51.510;7.522;2023-04-03T05:20:31;5.13;;;2.42;;
58637;SDS011;54976;51.510;7.522;2023-04-03T05:23:32;8.15;;;2.85;;
58637;SDS011;54976;51.510;7.522;2023-04-03T05:26:33;8.48;;;2.40;;
58637;SDS011;54976;51.510;7.522;2023-04-03T05:29:33;5.88;;;2.10;;
58637;SDS011;54976;51.510;7.522;2023-04-03T05:32:34;10.70;;;3.08;;
58637;SDS011;54976;51.510;7.522;2023-04-03T05:35:37;15.00;;;3.33;;
58637;SDS011;54976;51.510;7.522;2023-04-03T05:38:41;11.00;;;3.45;;
58637;SDS011;54976;51.510;7.522;2023-04-03T05:41:41;7.07;;;2.67;;
58637;SDS011;54976;51.510;7.522;2023-04-03T05:44:42;5.85;;;2.50;;
58637;SDS011;54976;51.510;7.522;2023-04-03T05:47:43;4.57;;;2.00;;
58637;SDS011;54976;51.510;7.522;2023-04-03T05:50:43;7.75;;;2.35;;
58637;SDS011;54976;51.510;7.522;2023-04-03T05:53:44;8.30;;;2.25;;
58637;SDS011;54976;51.510;7.522;2023-04-03T05:56:46;9.68;;;2.55;;
58637;SDS011;54976;51.510;7.522;2023-04-03T05:59:47;9.95;;;2.22;;
58637;SDS011;54976;51.510;7.522;2023-04-03T06:02:48;8.43;;;2.00;;
58637;SDS011;54976;51.510;7.522;2023-04-03T06:05:48;11.52;;;2.60;;
58637;SDS011;54976;51.510;7.522;2023-04-03T06:08:49;8.63;;;2.08;;
58637;SDS011;54976;51.510;7.522;2023-04-03T06:11:50;7.35;;;1.80;;
58637;SDS011;54976;51.510;7.522;2023-04-03T06:14:51;5.70;;;2.30;;
58637;SDS011;54976;51.510;7.522;2023-04-03T06:17:52;7.63;;;2.15;;
58637;SDS011;54976;51.510;7.522;2023-04-03T06:20:53;5.30;;;2.50;;
58637;SDS011;54976;51.510;7.522;2023-04-03T06:23:53;8.55;;;2.00;;
58637;SDS011;54976;51.510;7.522;2023-04-03T06:26:54;9.25;;;2.05;;
58637;SDS011;54976;51.510;7.522;2023-04-03T06:29:55;7.82;;;1.63;;
58637;SDS011;54976;51.510;7.522;2023-04-03T06:32:55;7.05;;;3.03;;
58637;SDS011;54976;51.510;7.522;2023-04-03T06:35:57;10.27;;;2.47;;
58637;SDS011;54976;51.510;7.522;2023-04-03T06:38:58;8.73;;;1.83;;
58637;SDS011;54976;51.510;7.522;2023-04-03T06:41:59;4.72;;;1.50;;
58637;SDS011;54976;51.510;7.522;2023-04-03T06:45:00;6.93;;;1.95;;
58637;SDS011;54976;51.510;7.522;2023-04-03T06:48:00;10.73;;;2.80;;
58637;SDS011;54976;51.510;7.522;2023-04-03T06:51:01;8.90;;;2.35;;
58637;SDS011;54976;51.510;7.522;2023-04-03T06:54:02;4.25;;;1.60;;
58637;SDS011;54976;51.510;7.522;2023-04-03T06:57:04;7.70;;;1.48;;
58637;SDS011;54976;51.510;7.522;2023-04-03T07:00:05;8.68;;;2.20;;
58637;SDS011;54976;51.510;7.522;2023-04-03T07:03:07;4.13;;;1.73;;
58637;SDS011;54976;51.510;7.522;2023-04-03T07:06:09;7.03;;;1.58;;
58637;SDS011;54976;51.510;7.522;2023-04-03T07:09:12;5.07;;;1.67;;
58637;SDS011;54976;51.510;7.522;2023-04-03T07:12:14;2.13;;;1.38;;
58637;SDS011;54976;51.510;7.522;2023-04-03T07:15:16;5.65;;;1.95;;
58637;SDS011;54976;51.510;7.522;2023-04-03T07:18:16;7.30;;;1.73;;
58637;SDS011;54976;51.510;7.522;2023-04-03T07:21:17;6.25;;;1.60;;
58637;SDS011;54976;51.510;7.522;2023-04-03T07:24:18;8.32;;;1.65;;
58637;SDS011;54976;51.510;7.522;2023-04-03T07:27:18;9.05;;;2.45;;
58637;SDS011;54976;51.510;7.522;2023-04-03T07:30:19;8.88;;;1.48;;
58637;SDS011;54976;51.510;7.522;2023-04-03T07:33:21;7.75;;;1.70;;
58637;SDS011;54976;51.510;7.522;2023-04-03T07:36:22;7.63;;;1.52;;
58637;SDS011;54976;51.510;7.522;2023-04-03T07:39:24;3.63;;;1.38;;
58637;SDS011;54976;51.510;7.522;2023-04-03T07:42:25;5.25;;;1.40;;
58637;SDS011;54976;51.510;7.522;2023-04-03T07:45:28;2.90;;;1.17;;
58637;SDS011;54976;51.510;7.522;2023-04-03T07:48:30;4.05;;;1.75;;
58637;SDS011;54976;51.510;7.522;2023-04-03T07:51:31;6.22;;;1.60;;
58637;SDS011;54976;51.510;7.522;2023-04-03T07:54:32;3.88;;;1.60;;
58637;SDS011;54976;51.510;7.522;2023-04-03T07:57:33;5.57;;;1.67;;
58637;SDS011;54976;51.510;7.522;2023-04-03T08:00:34;5.28;;;1.65;;
58637;SDS011;54976;51.510;7.522;2023-04-03T08:03:34;10.60;;;1.58;;
58637;SDS011;54976;51.510;7.522;2023-04-03T08:06:37;4.93;;;1.23;;
58637;SDS011;54976;51.510;7.522;2023-04-03T08:09:37;7.57;;;1.45;;
58637;SDS011;54976;51.510;7.522;2023-04-03T08:12:38;6.32;;;2.15;;
58637;SDS011;54976;51.510;7.522;2023-04-03T08:15:39;7.95;;;1.52;;
58637;SDS011;54976;51.510;7.522;2023-04-03T08:18:39;5.22;;;1.10;;
58637;SDS011;54976;51.510;7.522;2023-04-03T08:21:40;5.65;;;1.48;;
58637;SDS011;54976;51.510;7.522;2023-04-03T08:24:41;8.20;;;1.92;;
58637;SDS011;54976;51.510;7.522;2023-04-03T08:27:42;5.57;;;1.55;;
58637;SDS011;54976;51.510;7.522;2023-04-03T08:30:42;4.95;;;1.33;;
58637;SDS011;54976;51.510;7.522;2023-04-03T08:33:44;4.28;;;1.30;;
58637;SDS011;54976;51.510;7.522;2023-04-03T08:36:44;3.60;;;1.50;;
58637;SDS011;54976;51.510;7.522;2023-04-03T08:39:45;7.00;;;1.67;;
58637;SDS011;54976;51.510;7.522;2023-04-03T08:45:54;5.28;;;2.25;;
58637;SDS011;54976;51.510;7.522;2023-04-03T08:48:57;5.68;;;1.67;;
58637;SDS011;54976;51.510;7.522;2023-04-03T08:52:01;4.20;;;1.00;;
58637;SDS011;54976;51.510;7.522;2023-04-03T08:55:27;5.28;;;1.10;;
58637;SDS011;54976;51.510;7.522;2023-04-03T08:58:36;6.75;;;1.45;;
58637;SDS011;54976;51.510;7.522;2023-04-03T09:01:44;3.63;;;1.30;;
58637;SDS011;54976;51.510;7.522;2023-04-03T09:04:45;3.55;;;1.00;;
58637;SDS011;54976;51.510;7.522;2023-04-03T09:07:50;4.60;;;1.10;;
58637;SDS011;54976;51.510;7.522;2023-04-03T09:11:02;3.35;;;0.80;;
58637;SDS011;54976;51.510;7.522;2023-04-03T09:14:34;5.05;;;1.40;;
58637;SDS011;54976;51.510;7.522;2023-04-03T09:24:09;3.35;;;1.20;;
58637;SDS011;54976;51.510;7.522;2023-04-03T09:27:12;5.85;;;1.42;;
58637;SDS011;54976;51.510;7.522;2023-04-03T09:30:17;6.15;;;1.33;;
58637;SDS011;54976;51.510;7.522;2023-04-03T09:33:22;2.75;;;1.40;;
58637;SDS011;54976;51.510;7.522;2023-04-03T09:39:53;4.15;;;1.17;;
58637;SDS011;54976;51.510;7.522;2023-04-03T09:42:55;2.97;;;0.90;;
58637;SDS011;54976;51.510;7.522;2023-04-03T09:46:40;4.68;;;1.00;;
58637;SDS011;54976;51.510;7.522;2023-04-03T09:49:30;4.30;;;1.00;;
58637;SDS011;54976;51.510;7.522;2023-04-03T09:52:31;2.35;;;1.00;;
58637;SDS011;54976;51.510;7.522;2023-04-03T09:55:40;1.90;;;1.00;;
58637;SDS011;54976;51.510;7.522;2023-04-03T09:58:44;4.20;;;1.17;;
58637;SDS011;54976;51.510;7.522;2023-04-03T10:02:14;4.95;;;1.20;;
58637;SDS011;54976;51.510;7.522;2023-04-03T10:05:38;5.45;;;1.23;;
58637;SDS011;54976;51.510;7.522;2023-04-03T10:08:40;9.98;;;1.70;;
58637;SDS011;54976;51.510;7.522;2023-04-03T10:11:57;2.55;;;1.00;;
58637;SDS011;54976;51.510;7.522;2023-04-03T10:15:10;5.25;;;1.80;;
58637;SDS011;54976;51.510;7.522;2023-04-03T10:21:48;7.00;;;1.75;;
58637;SDS011;54976;51.510;7.522;2023-04-03T10:31:42;3.28;;;1.10;;
58637;SDS011;54976;51.510;7.522;2023-04-03T10:38:37;3.55;;;1.38;;
58637;SDS011;54976;51.510;7.522;2023-04-03T10:52:14;3.00;;;1.10;;
58637;SDS011;54976;51.510;7.522;2023-04-03T10:58:34;2.80;;;0.95;;
58637;SDS011;54976;51.510;7.522;2023-04-03T11:01:39;4.35;;;0.82;;
58637;SDS011;54976;51.510;7.522;2023-04-03T11:04:44;2.70;;;0.73;;
58637;SDS011;54976;51.510;7.522;2023-04-03T11:07:51;0.68;;;0.60;;
58637;SDS011;54976;51.510;7.522;2023-04-03T11:11:03;2.75;;;0.55;;
58637;SDS011;54976;51.510;7.522;2023-04-03T11:14:13;1.27;;;0.93;;
58637;SDS011;54976;51.510;7.522;2023-04-03T11:20:29;4.22;;;1.20;;
58637;SDS011;54976;51.510;7.522;2023-04-03T11:23:39;3.63;;;0.70;;
58637;SDS011;54976;51.510;7.522;2023-04-03T11:26:40;3.03;;;0.98;;
58637;SDS011;54976;51.510;7.522;2023-04-03T11:29:42;3.08;;;0.60;;
58637;SDS011;54976;51.510;7.522;2023-04-03T11:33:03;0.75;;;0.50;;
58637;SDS011;54976;51.510;7.522;2023-04-03T11:36:10;3.95;;;0.90;;
58637;SDS011;54976;51.510;7.522;2023-04-03T11:39:32;2.28;;;0.63;;
58637;SDS011;54976;51.510;7.522;2023-04-03T11:42:36;5.72;;;1.27;;
58637;SDS011;54976;51.510;7.522;2023-04-03T11:48:59;3.65;;;1.15;;
58637;SDS011;54976;51.510;7.522;2023-04-03T11:52:00;3.25;;;1.00;;
58637;SDS011;54976;51.510;7.522;2023-04-03T11:55:00;5.20;;;0.90;;
58637;SDS011;54976;51.510;7.522;2023-04-03T11:58:02;2.95;;;0.82;;
58637;SDS011;54976;51.510;7.522;2023-04-03T12:01:11;2.38;;;0.70;;
58637;SDS011;54976;51.510;7.522;2023-04-03T12:05:23;1.80;;;0.63;;
58637;SDS011;54976;51.510;7.522;2023-04-03T12:11:32;1.83;;;0.70;;
58637;SDS011;54976;51.510;7.522;2023-04-03T12:14:35;4.70;;;0.70;;
58637;SDS011;54976;51.510;7.522;2023-04-03T12:17:36;2.05;;;0.70;;
58637;SDS011;54976;51.510;7.522;2023-04-03T12:27:19;2.70;;;0.80;;
58637;SDS011;54976;51.510;7.522;2023-04-03T12:30:34;1.77;;;0.57;;
58637;SDS011;54976;51.510;7.522;2023-04-03T12:40:31;3.83;;;0.60;;
58637;SDS011;54976;51.510;7.522;2023-04-03T12:47:34;5.35;;;1.00;;
58637;SDS011;54976;51.510;7.522;2023-04-03T12:50:39;3.13;;;0.65;;
58637;SDS011;54976;51.510;7.522;2023-04-03T12:53:41;1.92;;;0.75;;
58637;SDS011;54976;51.510;7.522;2023-04-03T12:56:43;3.60;;;0.68;;
58637;SDS011;54976;51.510;7.522;2023-04-03T12:59:44;2.17;;;0.82;;
58637;SDS011;54976;51.510;7.522;2023-04-03T13:02:46;0.50;;;0.40;;
58637;SDS011;54976;51.510;7.522;2023-04-03T13:05:47;3.53;;;1.60;;
58637;SDS011;54976;51.510;7.522;2023-04-03T13:08:49;0.95;;;0.70;;
58637;SDS011;54976;51.510;7.522;2023-04-03T13:11:52;2.20;;;0.75;;
58637;SDS011;54976;51.510;7.522;2023-04-03T13:14:59;3.88;;;0.80;;
58637;SDS011;54976;51.510;7.522;2023-04-03T13:18:04;1.30;;;0.50;;
58637;SDS011;54976;51.510;7.522;2023-04-03T13:21:13;2.00;;;0.43;;
58637;SDS011;54976;51.510;7.522;2023-04-03T13:24:17;6.55;;;0.80;;
58637;SDS011;54976;51.510;7.522;2023-04-03T13:27:17;4.32;;;0.70;;
58637;SDS011;54976;51.510;7.522;2023-04-03T13:33:24;3.47;;;0.80;;
58637;SDS011;54976;51.510;7.522;2023-04-03T13:36:30;1.80;;;0.65;;
58637;SDS011;54976;51.510;7.522;2023-04-03T13:39:33;2.15;;;0.70;;
58637;SDS011;54976;51.510;7.522;2023-04-03T13:42:37;2.33;;;0.68;;
58637;SDS011;54976;51.510;7.522;2023-04-03T13:49:17;3.92;;;1.02;;
58637;SDS011;54976;51.510;7.522;2023-04-03T13:52:31;1.70;;;0.70;;
58637;SDS011;54976;51.510;7.522;2023-04-03T13:56:16;2.78;;;0.82;;
58637;SDS011;54976;51.510;7.522;2023-04-03T14:05:18;3.80;;;1.00;;
58637;SDS011;54976;51.510;7.522;2023-04-03T14:08:21;2.15;;;0.88;;
58637;SDS011;54976;51.510;7.522;2023-04-03T14:11:24;4.28;;;1.13;;
58637;SDS011;54976;51.510;7.522;2023-04-03T14:14:30;1.63;;;0.60;;
58637;SDS011;54976;51.510;7.522;2023-04-03T14:17:32;2.25;;;0.55;;
58637;SDS011;54976;51.510;7.522;2023-04-03T14:20:33;2.20;;;0.90;;
58637;SDS011;54976;51.510;7.522;2023-04-03T14:23:34;2.88;;;1.00;;
58637;SDS011;54976;51.510;7.522;2023-04-03T14:26:34;2.13;;;0.60;;
58637;SDS011;54976;51.510;7.522;2023-04-03T14:29:35;2.28;;;0.65;;
58637;SDS011;54976;51.510;7.522;2023-04-03T14:32:36;4.75;;;1.00;;
58637;SDS011;54976;51.510;7.522;2023-04-03T14:35:36;3.40;;;0.95;;
58637;SDS011;54976;51.510;7.522;2023-04-03T14:38:37;2.60;;;0.68;;
58637;SDS011;54976;51.510;7.522;2023-04-03T14:41:38;2.65;;;1.00;;
58637;SDS011;54976;51.510;7.522;2023-04-03T14:44:38;2.40;;;0.90;;
58637;SDS011;54976;51.510;7.522;2023-04-03T14:47:44;4.45;;;0.70;;
58637;SDS011;54976;51.510;7.522;2023-04-03T14:50:49;4.85;;;0.80;;
58637;SDS011;54976;51.510;7.522;2023-04-03T14:53:51;3.30;;;1.25;;
58637;SDS011;54976;51.510;7.522;2023-04-03T14:56:52;5.15;;;0.90;;
58637;SDS011;54976;51.510;7.522;2023-04-03T14:59:58;1.60;;;0.80;;
58637;SDS011;54976;51.510;7.522;2023-04-03T15:02:59;2.08;;;0.70;;
58637;SDS011;54976;51.510;7.522;2023-04-03T15:05:59;2.20;;;0.70;;
58637;SDS011;54976;51.510;7.522;2023-04-03T15:09:00;4.95;;;0.93;;
58637;SDS011;54976;51.510;7.522;2023-04-03T15:12:02;4.03;;;0.65;;
58637;SDS011;54976;51.510;7.522;2023-04-03T15:15:03;6.55;;;1.27;;
58637;SDS011;54976;51.510;7.522;2023-04-03T15:18:04;2.13;;;1.00;;
58637;SDS011;54976;51.510;7.522;2023-04-03T15:21:06;1.23;;;0.55;;
58637;SDS011;54976;51.510;7.522;2023-04-03T15:24:06;4.57;;;0.98;;
58637;SDS011;54976;51.510;7.522;2023-04-03T15:27:09;2.85;;;0.90;;
58637;SDS011;54976;51.510;7.522;2023-04-03T15:30:13;3.45;;;1.00;;
58637;SDS011;54976;51.510;7.522;2023-04-03T15:33:16;2.65;;;0.80;;
58637;SDS011;54976;51.510;7.522;2023-04-03T15:36:17;3.08;;;1.00;;
58637;SDS011;54976;51.510;7.522;2023-04-03T15:39:17;5.43;;;0.88;;
58637;SDS011;54976;51.510;7.522;2023-04-03T15:42:18;2.13;;;0.77;;
58637;SDS011;54976;51.510;7.522;2023-04-03T15:45:19;3.60;;;0.82;;
58637;SDS011;54976;51.510;7.522;2023-04-03T15:48:21;2.30;;;0.70;;
58637;SDS011;54976;51.510;7.522;2023-04-03T15:51:21;2.20;;;0.60;;
58637;SDS011;54976;51.510;7.522;2023-04-03T15:54:22;2.00;;;0.98;;
58637;SDS011;54976;51.510;7.522;2023-04-03T15:57:23;2.80;;;0.90;;
58637;SDS011;54976;51.510;7.522;2023-04-03T16:00:26;2.70;;;0.70;;
58637;SDS011;54976;51.510;7.522;2023-04-03T16:03:27;6.55;;;0.95;;
58637;SDS011;54976;51.510;7.522;2023-04-03T16:06:28;4.15;;;1.10;;
58637;SDS011;54976;51.510;7.522;2023-04-03T16:09:33;1.42;;;0.70;;
58637;SDS011;54976;51.510;7.522;2023-04-03T16:12:34;3.60;;;1.10;;
58637;SDS011;54976;51.510;7.522;2023-04-03T16:15:36;1.58;;;0.60;;
58637;SDS011;54976;51.510;7.522;2023-04-03T16:18:37;2.85;;;0.70;;
58637;SDS011;54976;51.510;7.522;2023-04-03T16:21:37;4.45;;;1.20;;
58637;SDS011;54976;51.510;7.522;2023-04-03T16:24:38;2.45;;;0.90;;
58637;SDS011;54976;51.510;7.522;2023-04-03T16:27:39;5.13;;;1.30;;
58637;SDS011;54976;51.510;7.522;2023-04-03T16:30:43;3.13;;;0.80;;
58637;SDS011;54976;51.510;7.522;2023-04-03T16:33:45;2.20;;;0.80;;
58637;SDS011;54976;51.510;7.522;2023-04-03T16:36:46;3.88;;;1.40;;
58637;SDS011;54976;51.510;7.522;2023-04-03T16:39:46;7.43;;;2.28;;
58637;SDS011;54976;51.510;7.522;2023-04-03T16:42:47;2.63;;;1.35;;
58637;SDS011;54976;51.510;7.522;2023-04-03T16:45:48;6.32;;;0.95;;
58637;SDS011;54976;51.510;7.522;2023-04-03T16:48:48;4.97;;;1.27;;
58637;SDS011;54976;51.510;7.522;2023-04-03T16:51:49;2.45;;;1.20;;
58637;SDS011;54976;51.510;7.522;2023-04-03T16:54:50;2.67;;;1.30;;
58637;SDS011;54976;51.510;7.522;2023-04-03T16:57:55;4.43;;;0.80;;
58637;SDS011;54976;51.510;7.522;2023-04-03T17:00:55;5.25;;;1.38;;
58637;SDS011;54976;51.510;7.522;2023-04-03T17:03:56;2.88;;;1.17;;
58637;SDS011;54976;51.510;7.522;2023-04-03T17:06:56;2.40;;;1.02;;
58637;SDS011;54976;51.510;7.522;2023-04-03T17:09:57;14.23;;;1.00;;
58637;SDS011;54976;51.510;7.522;2023-04-03T17:12:58;4.22;;;1.10;;
58637;SDS011;54976;51.510;7.522;2023-04-03T17:15:58;4.65;;;1.08;;
58637;SDS011;54976;51.510;7.522;2023-04-03T17:19:01;2.90;;;1.02;;
58637;SDS011;54976;51.510;7.522;2023-04-03T17:22:03;5.40;;;0.77;;
58637;SDS011;54976;51.510;7.522;2023-04-03T17:25:04;3.90;;;1.00;;
58637;SDS011;54976;51.510;7.522;2023-04-03T17:28:05;6.63;;;2.63;;
58637;SDS011;54976;51.510;7.522;2023-04-03T17:31:06;3.13;;;1.13;;
58637;SDS011;54976;51.510;7.522;2023-04-03T17:34:07;6.30;;;2.65;;
58637;SDS011;54976;51.510;7.522;2023-04-03T17:37:10;4.25;;;1.13;;
58637;SDS011;54976;51.510;7.522;2023-04-03T17:40:11;5.00;;;1.10;;
58637;SDS011;54976;51.510;7.522;2023-04-03T17:43:13;4.13;;;1.00;;
58637;SDS011;54976;51.510;7.522;2023-04-03T17:46:14;4.70;;;0.93;;
58637;SDS011;54976;51.510;7.522;2023-04-03T17:49:16;3.35;;;1.10;;
58637;SDS011;54976;51.510;7.522;2023-04-03T17:52:17;2.42;;;1.02;;
58637;SDS011;54976;51.510;7.522;2023-04-03T17:55:18;5.18;;;1.15;;
58637;SDS011;54976;51.510;7.522;2023-04-03T17:58:19;5.40;;;1.25;;
58637;SDS011;54976;51.510;7.522;2023-04-03T18:01:21;6.15;;;1.17;;
58637;SDS011;54976;51.510;7.522;2023-04-03T18:04:26;2.65;;;0.98;;
58637;SDS011;54976;51.510;7.522;2023-04-03T18:07:29;3.70;;;1.27;;
58637;SDS011;54976;51.510;7.522;2023-04-03T18:10:30;4.28;;;1.40;;
58637;SDS011;54976;51.510;7.522;2023-04-03T18:13:31;8.40;;;1.73;;
58637;SDS011;54976;51.510;7.522;2023-04-03T18:16:33;24.42;;;12.25;;
58637;SDS011;54976;51.510;7.522;2023-04-03T18:19:34;6.25;;;1.65;;
58637;SDS011;54976;51.510;7.522;2023-04-03T18:22:34;24.15;;;10.38;;
58637;SDS011;54976;51.510;7.522;2023-04-03T18:25:36;6.03;;;2.30;;
58637;SDS011;54976;51.510;7.522;2023-04-03T18:28:37;3.78;;;1.60;;
58637;SDS011;54976;51.510;7.522;2023-04-03T18:31:43;7.13;;;2.10;;
58637;SDS011;54976;51.510;7.522;2023-04-03T18:34:46;5.05;;;1.77;;
58637;SDS011;54976;51.510;7.522;2023-04-03T18:37:47;5.00;;;2.70;;
58637;SDS011;54976;51.510;7.522;2023-04-03T18:40:47;8.52;;;1.52;;
58637;SDS011;54976;51.510;7.522;2023-04-03T18:43:49;4.65;;;1.95;;
58637;SDS011;54976;51.510;7.522;2023-04-03T18:46:50;7.00;;;1.80;;
58637;SDS011;54976;51.510;7.522;2023-04-03T18:49:52;2.08;;;1.13;;
58637;SDS011;54976;51.510;7.522;2023-04-03T18:52:53;5.22;;;1.58;;
58637;SDS011;54976;51.510;7.522;2023-04-03T18:55:53;4.38;;;1.50;;
58637;SDS011;54976;51.510;7.522;2023-04-03T18:58:54;4.78;;;1.60;;
58637;SDS011;54976;51.510;7.522;2023-04-03T19:01:55;4.45;;;1.65;;
58637;SDS011;54976;51.510;7.522;2023-04-03T19:04:55;7.20;;;2.83;;
58637;SDS011;54976;51.510;7.522;2023-04-03T19:07:56;4.40;;;1.85;;
58637;SDS011;54976;51.510;7.522;2023-04-03T19:10:57;5.47;;;1.15;;
58637;SDS011;54976;51.510;7.522;2023-04-03T19:13:58;4.97;;;1.50;;
58637;SDS011;54976;51.510;7.522;2023-04-03T19:16:59;5.00;;;2.03;;
58637;SDS011;54976;51.510;7.522;2023-04-03T19:20:01;5.95;;;2.05;;
58637;SDS011;54976;51.510;7.522;2023-04-03T19:23:02;7.00;;;1.90;;
58637;SDS011;54976;51.510;7.522;2023-04-03T19:26:04;3.40;;;1.55;;
58637;SDS011;54976;51.510;7.522;2023-04-03T19:29:07;1.58;;;1.00;;
58637;SDS011;54976;51.510;7.522;2023-04-03T19:32:08;7.88;;;3.13;;
58637;SDS011;54976;51.510;7.522;2023-04-03T19:35:09;6.18;;;2.00;;
58637;SDS011;54976;51.510;7.522;2023-04-03T19:38:10;6.57;;;2.28;;
58637;SDS011;54976;51.510;7.522;2023-04-03T19:41:12;6.07;;;1.17;;
58637;SDS011;54976;51.510;7.522;2023-04-03T19:47:16;4.25;;;1.17;;
58637;SDS011;54976;51.510;7.522;2023-04-03T19:50:18;3.05;;;1.27;;
58637;SDS011;54976;51.510;7.522;2023-04-03T19:53:19;2.22;;;1.30;;
58637;SDS011;54976;51.510;7.522;2023-04-03T19:56:21;7.22;;;2.47;;